Time;durP1;ratioP1;P1;durP2;ratioP2;P2;SDS_P1;SDS_P2;PMS_P1;PMS_P2;Temp;Humidity;BMP_temperature;BMP_pressure;BME280_temperature;BME280_humidity;BME280_pressure;Samples;Min_cycle;Max_cycle;Signal;HPM_P1;HPM_P2
2022/06/25 00:01:07;;;;;;;10.77;7.20;;;;;;;18.78;89.83;100153.06;5036563;28;20042;-75
2022/06/25 00:03:32;;;;;;;9.05;6.80;;;;;;;18.74;90.18;100152.19;5036737;28;20435;-74
2022/06/25 00:05:58;;;;;;;8.13;6.75;;;;;;;18.74;89.37;100119.09;5036079;28;20094;-75
2022/06/25 00:08:23;;;;;;;9.63;6.30;;;;;;;18.66;89.12;100091.22;5036448;28;20025;-75
2022/06/25 00:10:49;;;;;;;10.23;7.00;;;;;;;18.91;88.88;100128.66;5035969;28;20120;-76
2022/06/25 00:13:14;;;;;;;7.32;6.63;;;;;;;19.07;89.33;100150.41;5036345;28;20393;-75
2022/06/25 00:15:40;;;;;;;8.15;7.07;;;;;;;19.15;88.85;100147.78;5036666;28;20064;-75
2022/06/25 00:18:06;;;;;;;12.05;7.30;;;;;;;18.85;88.63;100119.03;5036717;28;20025;-73
2022/06/25 00:20:31;;;;;;;9.55;6.90;;;;;;;18.73;90.58;100153.94;5036362;28;20057;-77
2022/06/25 00:22:57;;;;;;;8.60;7.07;;;;;;;18.78;90.63;100153.06;5018481;28;20493;-75
2022/06/25 00:25:22;;;;;;;8.82;6.55;;;;;;;18.91;89.73;100139.13;5035964;28;20018;-74
2022/06/25 00:27:48;;;;;;;7.13;6.43;;;;;;;19.13;89.12;100149.50;5036495;28;20435;-75
2022/06/25 00:30:13;;;;;;;9.07;6.85;;;;;;;19.18;87.96;100130.31;5036322;28;20017;-75
2022/06/25 00:32:39;;;;;;;7.55;6.75;;;;;;;19.40;87.43;100141.56;5036194;28;20022;-76
2022/06/25 00:35:05;;;;;;;10.90;7.43;;;;;;;19.59;86.09;100144.09;5036397;28;20025;-76
2022/06/25 00:37:30;;;;;;;7.30;6.43;;;;;;;19.42;85.36;100119.75;5035925;28;20028;-76
2022/06/25 00:39:56;;;;;;;8.60;6.43;;;;;;;19.37;85.19;100119.75;5035891;28;20029;-76
2022/06/25 00:42:22;;;;;;;8.60;6.88;;;;;;;19.26;85.11;100091.00;5036035;28;20049;-74
2022/06/25 00:44:47;;;;;;;7.78;6.75;;;;;;;19.30;85.01;100108.47;5036194;28;20022;-76
2022/06/25 00:47:14;;;;;;;8.80;7.07;;;;;;;19.13;86.30;100154.75;5035885;28;20128;-76
2022/06/25 00:49:41;;;;;;;9.60;6.75;;;;;;;18.87;87.49;100126.91;5036164;28;20029;-75
2022/06/25 00:52:11;;;;;;;9.75;7.53;;;;;;;18.78;87.99;100126.91;5036296;28;20109;-75
2022/06/25 00:54:42;;;;;;;11.15;7.10;;;;;;;18.73;88.83;100140.88;5035617;28;20155;-77
2022/06/25 00:57:08;;;;;;;8.07;6.68;;;;;;;18.84;88.96;100140.84;5036281;28;20087;-76
2022/06/25 00:59:42;;;;;;;7.47;6.68;;;;;;;18.86;88.22;100127.78;5035814;28;20025;-80
2022/06/25 01:02:08;;;;;;;7.75;6.57;;;;;;;18.98;88.07;100133.00;5032301;28;20026;-76
2022/06/25 01:04:36;;;;;;;8.70;6.45;;;;;;;18.91;86.96;100105.97;5032962;28;20029;-75
2022/06/25 01:07:02;;;;;;;8.52;6.32;;;;;;;19.20;86.39;100135.53;5014522;28;20440;-76
2022/06/25 01:09:27;;;;;;;9.52;6.43;;;;;;;19.18;85.11;100132.94;5032490;28;20078;-76
2022/06/25 01:11:53;;;;;;;7.93;6.72;;;;;;;19.10;86.16;100137.31;5014976;28;20018;-76
2022/06/25 01:14:18;;;;;;;7.82;6.30;;;;;;;18.85;86.06;100100.72;5032483;28;20033;-75
2022/06/25 01:16:44;;;;;;;9.30;6.78;;;;;;;18.97;85.95;100106.84;5032285;28;20105;-76
2022/06/25 01:19:11;;;;;;;9.27;6.57;;;;;;;18.97;86.51;100112.94;5032242;28;20021;-74
2022/06/25 01:21:38;;;;;;;9.00;6.30;;;;;;;18.60;87.53;100058.09;5032371;28;20025;-75
2022/06/25 01:24:05;;;;;;;9.98;6.47;;;;;;;18.76;88.35;100083.31;5032688;28;20037;-76
2022/06/25 01:26:39;;;;;;;7.75;6.57;;;;;;;19.01;89.10;100125.13;5032746;28;20108;-76
2022/06/25 01:29:05;;;;;;;8.18;6.40;;;;;;;19.14;88.46;100117.25;5032396;28;20456;-76
2022/06/25 01:31:31;;;;;;;8.73;7.13;;;;;;;19.26;87.76;100117.19;5032114;28;20044;-75
2022/06/25 01:33:58;;;;;;;8.07;6.57;;;;;;;19.17;87.32;100104.16;5032176;28;20063;-74
2022/06/25 01:36:24;;;;;;;8.07;6.78;;;;;;;19.32;87.69;100108.44;5014553;28;20033;-75
2022/06/25 01:38:50;;;;;;;11.00;6.55;;;;;;;19.32;87.19;100093.59;5031821;28;20503;-75
2022/06/25 01:41:15;;;;;;;8.02;6.70;;;;;;;19.22;85.91;100105.00;5032199;28;20104;-74
2022/06/25 01:43:41;;;;;;;7.30;5.75;;;;;;;18.73;86.91;100041.50;5031702;28;20049;-75
2022/06/25 01:46:08;;;;;;;8.32;7.00;;;;;;;19.03;85.35;100101.59;5032324;28;20398;-78
2022/06/25 01:48:34;;;;;;;12.10;6.65;;;;;;;18.92;85.04;100065.88;5031795;28;20029;-78
2022/06/25 01:50:59;;;;;;;6.63;5.82;;;;;;;19.05;83.72;100095.50;5031612;28;20018;-78
2022/06/25 01:53:25;;;;;;;11.77;6.57;;;;;;;19.02;82.89;100116.41;5031725;28;20417;-78
2022/06/25 01:55:51;;;;;;;8.88;5.93;;;;;;;19.08;82.64;100116.38;5031873;28;20025;-78
2022/06/25 01:58:17;;;;;;;9.52;5.88;;;;;;;19.16;82.32;100118.97;5014052;28;20465;-77
2022/06/25 02:00:42;;;;;;;12.77;6.18;;;;;;;19.17;82.05;100120.72;5032053;28;20037;-78
2022/06/25 02:03:08;;;;;;;8.02;5.88;;;;;;;19.15;81.54;100116.38;5031418;28;20045;-77
2022/06/25 02:08:19;;;;;;;10.82;5.90;;;;;;;19.09;82.53;100135.59;5016381;28;20087;-77
2022/06/25 02:10:46;;;;;;;7.88;5.78;;;;;;;19.10;82.35;100119.00;5031546;28;20064;-77
2022/06/25 02:13:12;;;;;;;7.07;6.00;;;;;;;18.68;81.32;100043.28;5030208;28;20100;-77
2022/06/25 02:15:37;;;;;;;7.72;6.13;;;;;;;19.15;81.20;100114.63;5031286;28;20171;-77
2022/06/25 02:18:03;;;;;;;6.80;6.10;;;;;;;18.85;81.14;100078.94;5031442;28;20021;-80
2022/06/25 02:20:29;;;;;;;6.60;5.90;;;;;;;18.90;81.86;100119.94;5031279;28;20124;-78
2022/06/25 02:22:54;;;;;;;9.00;6.35;;;;;;;18.82;83.99;100118.19;5031198;28;20543;-80
2022/06/25 02:25:19;;;;;;;7.35;6.65;;;;;;;18.71;84.54;100097.28;5031487;28;20026;-77
2022/06/25 02:27:45;;;;;;;9.77;7.18;;;;;;;18.80;84.15;100125.16;5031374;28;20029;-77
2022/06/25 02:30:11;;;;;;;9.30;7.10;;;;;;;18.61;85.21;100106.91;5030730;28;20039;-77
2022/06/25 02:32:37;;;;;;;9.18;7.95;;;;;;;18.58;86.52;100120.00;5031094;28;20416;-78
2022/06/25 02:35:02;;;;;;;8.85;7.65;;;;;;;18.22;86.38;100051.22;5013042;28;20032;-77
2022/06/25 02:37:28;;;;;;;10.35;7.25;;;;;;;18.58;86.54;100107.78;5030799;28;20025;-77
2022/06/25 02:39:53;;;;;;;9.23;7.07;;;;;;;18.57;86.23;100103.41;5031078;28;20550;-77
2022/06/25 02:42:19;;;;;;;9.80;7.20;;;;;;;18.37;85.64;100071.22;5030886;28;20163;-77
2022/06/25 02:44:44;;;;;;;11.00;7.07;;;;;;;18.69;85.75;100127.81;5031046;28;20099;-76
2022/06/25 02:47:10;;;;;;;11.15;7.13;;;;;;;18.46;86.09;100104.31;5031098;28;20030;-77
2022/06/25 02:49:35;;;;;;;8.95;7.25;;;;;;;18.55;85.14;100107.78;5023957;28;20145;-77
2022/06/25 02:52:01;;;;;;;8.93;6.50;;;;;;;18.61;84.68;100130.44;5030669;28;20032;-78
2022/06/25 02:54:26;;;;;;;10.20;7.65;;;;;;;18.48;85.75;100126.97;5030512;28;20463;-75
2022/06/25 02:59:40;;;;;;;9.05;7.07;;;;;;;17.93;88.61;100072.94;5030397;28;20086;-74
2022/06/25 03:02:06;;;;;;;8.40;7.00;;;;;;;18.26;87.94;100123.50;5031093;28;20030;-76
2022/06/25 03:04:32;;;;;;;7.45;6.63;;;;;;;18.51;87.31;100149.63;5030828;28;20048;-77
2022/06/25 03:06:57;;;;;;;7.40;6.60;;;;;;;18.37;86.57;100133.97;5030883;28;20037;-76
2022/06/25 03:09:23;;;;;;;10.10;7.15;;;;;;;18.45;86.56;100153.09;5030900;28;20478;-76
2022/06/25 03:11:49;;;;;;;10.70;7.03;;;;;;;18.15;86.22;100115.66;5030616;28;20030;-77
2022/06/25 03:14:14;;;;;;;12.05;6.75;;;;;;;18.45;86.42;100155.72;5030497;28;20033;-77
2022/06/25 03:16:40;;;;;;;8.32;6.45;;;;;;;18.13;86.58;100106.06;5030692;28;20025;-77
2022/06/25 03:19:06;;;;;;;8.20;6.45;;;;;;;18.40;86.55;100153.09;5030674;28;20110;-77
2022/06/25 03:21:31;;;;;;;9.30;6.80;;;;;;;18.29;86.58;100141.78;5030716;28;20032;-75
2022/06/25 03:23:57;;;;;;;12.80;7.35;;;;;;;18.18;86.24;100133.97;5030322;28;20627;-77
2022/06/25 03:26:22;;;;;;;7.60;6.28;;;;;;;18.41;85.61;100160.06;5022566;28;20033;-77
2022/06/25 03:28:48;;;;;;;13.93;6.57;;;;;;;18.37;85.96;100166.19;5021004;28;20040;-78
2022/06/25 03:31:14;;;;;;;9.27;6.55;;;;;;;18.33;87.15;100166.16;5019212;28;20112;-76
2022/06/25 03:33:39;;;;;;;10.38;6.93;;;;;;;18.27;87.31;100156.59;5029622;28;20401;-77
2022/06/25 03:36:05;;;;;;;9.30;7.38;;;;;;;18.13;87.57;100133.09;5029341;28;20057;-76
2022/06/25 03:38:30;;;;;;;8.98;7.20;;;;;;;18.25;87.61;100171.41;5029567;28;20033;-78
2022/06/25 03:43:41;;;;;;;12.73;7.40;;;;;;;18.24;88.00;100178.38;5030148;28;20065;-77
2022/06/25 03:46:06;;;;;;;11.88;7.90;;;;;;;17.80;88.27;100121.69;5030327;28;20028;-76
2022/06/25 03:48:32;;;;;;;9.60;7.38;;;;;;;17.95;88.97;100167.88;5030066;28;20037;-76
2022/06/25 03:50:58;;;;;;;9.15;7.35;;;;;;;18.01;89.30;100180.09;5029913;28;20017;-77
2022/06/25 03:53:23;;;;;;;8.13;7.32;;;;;;;17.86;89.47;100160.88;5030066;28;20037;-76
2022/06/25 03:55:49;;;;;;;8.60;6.57;;;;;;;18.05;88.62;100182.69;5030192;28;20022;-78
2022/06/25 03:58:14;;;;;;;8.73;7.07;;;;;;;18.01;88.48;100190.53;5030377;28;20464;-76
2022/06/25 04:00:39;;;;;;;9.95;7.45;;;;;;;17.86;89.33;100181.75;5030164;28;20072;-74
2022/06/25 04:03:05;;;;;;;7.82;7.05;;;;;;;17.91;89.65;100190.47;5030246;28;20095;-75
2022/06/25 04:05:31;;;;;;;11.98;7.72;;;;;;;17.91;90.27;100187.84;5030047;28;20022;-75
2022/06/25 04:07:56;;;;;;;10.55;8.15;;;;;;;17.91;90.86;100190.47;5029782;28;20057;-75
2022/06/25 04:10:22;;;;;;;9.30;7.55;;;;;;;17.78;90.94;100158.25;5029787;28;20025;-74
2022/06/25 04:12:48;;;;;;;8.57;7.68;;;;;;;17.75;90.92;100137.34;5029860;28;20496;-76
2022/06/25 04:15:13;;;;;;;9.80;8.77;;;;;;;17.92;91.72;100170.47;5030202;28;20032;-74
2022/06/25 04:17:39;;;;;;;9.93;8.73;;;;;;;17.72;92.25;100150.41;5030072;28;20029;-76
2022/06/25 04:20:05;;;;;;;11.25;9.13;;;;;;;17.99;92.57;100177.44;5030176;28;20084;-75
2022/06/25 04:22:30;;;;;;;9.35;8.45;;;;;;;18.01;93.19;100180.09;5029960;28;20041;-74
2022/06/25 04:24:55;;;;;;;14.77;8.80;;;;;;;17.86;93.03;100126.06;5029816;28;20036;-74
2022/06/25 04:30:06;;;;;;;11.45;8.75;;;;;;;18.18;93.47;100151.34;5030296;28;20135;-75
2022/06/25 04:32:32;;;;;;;10.93;9.32;;;;;;;18.07;94.25;100138.31;5012375;28;20083;-76
2022/06/25 04:34:57;;;;;;;10.10;9.20;;;;;;;18.36;95.03;100187.09;5029757;28;20033;-76
2022/06/25 04:37:22;;;;;;;11.70;10.38;;;;;;;18.09;96.53;100145.28;5032603;28;20068;-74
2022/06/25 04:39:48;;;;;;;12.38;11.07;;;;;;;18.34;96.34;100167.91;5033483;28;20404;-78
2022/06/25 04:42:13;;;;;;;11.73;10.45;;;;;;;18.48;96.54;100196.66;5033611;28;20033;-79
2022/06/25 04:44:39;;;;;;;11.90;10.70;;;;;;;18.39;97.20;100192.31;5015597;28;20046;-80
2022/06/25 04:47:04;;;;;;;12.52;11.20;;;;;;;18.18;98.00;100172.25;5033413;28;20060;-78
2022/06/25 04:49:30;;;;;;;14.10;11.02;;;;;;;18.38;98.74;100177.50;5033269;28;20041;-77
2022/06/25 04:55:17;;;;;;;12.18;10.60;;;;;;;18.17;97.07;100087.78;5373459;23;20119;-75
2022/06/25 04:57:43;;;;;;;13.70;11.65;;;;;;;18.68;96.43;100167.88;5053521;28;20419;-76
2022/06/25 05:00:11;;;;;;;15.23;11.18;;;;;;;18.79;95.80;100176.63;5053660;28;20067;-75
2022/06/25 05:02:37;;;;;;;15.18;12.63;;;;;;;18.89;96.15;100173.09;5053505;28;20016;-76
2022/06/25 05:05:03;;;;;;;14.48;10.88;;;;;;;19.01;95.42;100173.97;5052342;28;20029;-76
2022/06/25 05:07:28;;;;;;;13.85;11.95;;;;;;;18.81;95.72;100117.31;5053567;28;20439;-77
2022/06/25 05:09:54;;;;;;;11.88;10.55;;;;;;;19.23;95.07;100180.88;5053548;28;20036;-75
2022/06/25 05:15:30;;;;;;;16.05;13.50;;;;;;;19.49;95.10;100174.69;5038038;22;20072;-76
2022/06/25 05:17:56;;;;;;;11.68;10.32;;;;;;;19.22;94.71;100123.31;5013677;28;20037;-77
2022/06/25 05:20:22;;;;;;;12.02;10.82;;;;;;;19.60;94.54;100176.38;5013524;28;20037;-74
2022/06/25 05:22:47;;;;;;;12.35;11.15;;;;;;;19.75;93.92;100180.66;5013563;28;20405;-74
2022/06/25 05:25:13;;;;;;;11.65;10.45;;;;;;;19.77;93.11;100179.78;5013377;28;20026;-75
2022/06/25 05:27:38;;;;;;;11.65;10.45;;;;;;;19.94;91.16;100186.69;5013599;28;20500;-75
2022/06/25 05:30:05;;;;;;;12.23;10.43;;;;;;;20.02;92.72;100195.38;5013280;28;20087;-74
2022/06/25 05:32:31;;;;;;;16.33;11.13;;;;;;;20.05;93.16;100184.91;5013544;28;20449;-75
2022/06/25 05:34:57;;;;;;;12.48;10.52;;;;;;;20.07;93.20;100171.78;5013293;28;20026;-75
2022/06/25 05:37:24;;;;;;;11.55;10.35;;;;;;;19.87;93.35;100125.63;5011182;28;20038;-75
2022/06/25 05:39:50;;;;;;;12.80;11.32;;;;;;;20.07;92.27;100188.34;5012657;28;20105;-74
2022/06/25 05:42:15;;;;;;;14.57;10.70;;;;;;;20.11;94.29;100194.44;5001800;28;20113;-74
2022/06/25 05:44:41;;;;;;;12.25;10.63;;;;;;;19.94;91.83;100147.38;5013062;28;20080;-77
2022/06/25 05:47:06;;;;;;;11.70;10.57;;;;;;;20.33;92.27;100193.41;5012606;28;20022;-75
2022/06/25 05:49:32;;;;;;;14.07;10.02;;;;;;;20.29;91.23;100164.63;5012892;28;20462;-75
2022/06/25 05:51:57;;;;;;;12.18;10.95;;;;;;;20.60;91.85;100185.31;5012719;28;20096;-75
2022/06/25 05:54:23;;;;;;;14.35;10.77;;;;;;;20.73;91.30;100202.72;5012596;28;20028;-75
2022/06/25 05:56:48;;;;;;;13.07;10.95;;;;;;;20.25;91.30;100107.84;5011038;28;20465;-74
2022/06/25 05:59:13;;;;;;;13.13;11.48;;;;;;;20.98;91.82;100220.84;4991727;28;20022;-75
2022/06/25 06:01:39;;;;;;;16.35;12.35;;;;;;;21.14;91.04;100222.44;4980517;28;20034;-75
2022/06/25 06:04:05;;;;;;;15.75;12.93;;;;;;;21.26;89.28;100204.81;4999197;28;20101;-75
2022/06/25 06:06:31;;;;;;;14.98;12.27;;;;;;;21.38;91.20;100209.91;4992566;28;20478;-74
2022/06/25 06:08:56;;;;;;;12.93;11.50;;;;;;;21.41;89.32;100209.91;4992403;28;20026;-74
2022/06/25 06:11:22;;;;;;;12.50;10.88;;;;;;;21.43;89.72;100216.00;4992554;28;20026;-75
2022/06/25 06:13:47;;;;;;;13.65;10.63;;;;;;;21.54;89.29;100205.34;4992665;28;20086;-74
2022/06/25 06:16:13;;;;;;;15.30;12.07;;;;;;;21.35;89.39;100152.19;5005432;28;20398;-75
2022/06/25 06:18:38;;;;;;;32.00;17.35;;;;;;;21.71;89.65;100191.16;5011932;28;20056;-75
2022/06/25 06:21:04;;;;;;;26.85;15.73;;;;;;;21.98;88.38;100205.66;5012106;28;20022;-77
2022/06/25 06:23:29;;;;;;;25.13;14.98;;;;;;;22.12;86.13;100198.47;5011771;28;20030;-76
2022/06/25 06:25:54;;;;;;;23.80;15.02;;;;;;;22.08;85.46;100157.34;5011743;28;20532;-74
2022/06/25 06:28:20;;;;;;;20.27;11.75;;;;;;;22.16;83.83;100141.44;5012011;28;20026;-76
2022/06/25 06:30:46;;;;;;;13.48;9.85;;;;;;;22.48;82.35;100181.28;5009816;28;20496;-75
2022/06/25 06:33:12;;;;;;;17.35;10.02;;;;;;;22.61;77.95;100193.34;5011733;28;20079;-76
2022/06/25 06:35:37;;;;;;;13.98;10.13;;;;;;;22.72;80.45;100211.56;5002736;28;20087;-75
2022/06/25 06:38:03;;;;;;;12.57;10.25;;;;;;;22.80;81.40;100199.13;4991727;28;20536;-77
2022/06/25 06:40:28;;;;;;;14.75;10.93;;;;;;;22.75;81.53;100178.19;4990586;28;20038;-77
2022/06/25 06:42:55;;;;;;;13.25;10.75;;;;;;;22.90;88.37;100197.19;4991985;28;20699;-77
2022/06/25 06:45:21;;;;;;;13.23;10.35;;;;;;;22.92;84.74;100195.41;4974391;28;20413;-77
2022/06/25 06:47:47;;;;;;;15.38;9.98;;;;;;;22.94;83.00;100189.22;5010727;28;20030;-78
2022/06/25 06:50:14;;;;;;;14.27;9.63;;;;;;;23.05;82.70;100203.94;5011032;28;20041;-76
2022/06/25 06:52:40;;;;;;;16.38;10.75;;;;;;;23.14;82.67;100205.53;5011266;28;20083;-79
2022/06/25 06:55:06;;;;;;;13.00;9.88;;;;;;;23.10;79.75;100188.91;5011295;28;20109;-77
2022/06/25 06:57:33;;;;;;;15.18;9.77;;;;;;;23.27;79.34;100197.38;5009867;28;20030;-76
2022/06/25 07:00:01;;;;;;;14.15;10.18;;;;;;;23.30;80.43;100180.66;4995700;28;20506;-77
2022/06/25 07:02:27;;;;;;;17.23;9.07;;;;;;;23.36;76.51;100177.91;4991449;28;20026;-75
2022/06/25 07:04:53;;;;;;;18.80;10.02;;;;;;;22.71;76.73;100060.69;4991392;28;20053;-76
2022/06/25 07:07:19;;;;;;;14.85;9.63;;;;;;;23.72;72.33;100203.50;4991267;28;20482;-76
2022/06/25 07:09:44;;;;;;;17.40;9.73;;;;;;;23.80;72.50;100187.53;4991646;28;20030;-75
2022/06/25 07:12:10;;;;;;;14.65;9.13;;;;;;;23.96;72.32;100193.34;4991546;28;20469;-76
2022/06/25 07:14:36;;;;;;;16.48;9.55;;;;;;;23.99;75.22;100175.69;4991305;28;20058;-75
2022/06/25 07:17:01;;;;;;;16.55;8.90;;;;;;;23.95;72.74;100146.78;4991242;28;20026;-76
2022/06/25 07:19:27;;;;;;;11.70;8.57;;;;;;;23.83;72.22;100134.75;4991298;28;20027;-76
2022/06/25 07:21:54;;;;;;;14.18;8.68;;;;;;;24.18;71.86;100197.22;4991078;28;20461;-75
2022/06/25 07:24:20;;;;;;;13.38;8.73;;;;;;;24.06;73.93;100144.75;4972863;28;20038;-74
2022/06/25 07:26:46;;;;;;;18.25;8.75;;;;;;;24.25;73.21;100182.13;4991107;28;20573;-73
2022/06/25 07:29:12;;;;;;;12.63;9.25;;;;;;;24.33;75.23;100168.75;4973469;28;20038;-75
2022/06/25 07:31:37;;;;;;;16.48;8.82;;;;;;;24.48;71.07;100173.63;4991165;28;20085;-74
2022/06/25 07:34:03;;;;;;;14.35;8.60;;;;;;;24.61;67.55;100162.75;4998633;28;20037;-75
2022/06/25 07:36:28;;;;;;;9.82;8.27;;;;;;;24.58;68.29;100142.59;5010480;28;20026;-76
2022/06/25 07:38:54;;;;;;;15.07;8.73;;;;;;;24.65;70.52;100152.09;5010564;28;20412;-76
2022/06/25 07:41:20;;;;;;;12.00;8.77;;;;;;;24.96;71.75;100196.19;5010550;28;20061;-76
2022/06/25 07:43:46;;;;;;;11.00;8.52;;;;;;;24.94;70.02;100187.41;5010562;28;20036;-75
2022/06/25 07:46:11;;;;;;;10.63;8.82;;;;;;;24.94;70.93;100174.22;5010469;28;20026;-77
2022/06/25 07:48:37;;;;;;;15.00;9.07;;;;;;;25.04;74.80;100195.97;5009920;28;20037;-77
2022/06/25 07:53:47;;;;;;;13.57;8.95;;;;;;;24.89;70.03;100136.50;5010720;28;20563;-76
2022/06/25 07:56:13;;;;;;;9.63;8.32;;;;;;;25.19;69.28;100192.03;4993107;28;20033;-76
2022/06/25 07:58:39;;;;;;;12.20;7.65;;;;;;;25.27;67.11;100187.41;5010362;28;20029;-76
2022/06/25 08:01:05;;;;;;;13.05;7.93;;;;;;;25.30;67.12;100176.72;5010160;28;20135;-77
2022/06/25 08:03:30;;;;;;;10.77;8.15;;;;;;;25.47;66.31;100191.25;5010332;28;20033;-77
2022/06/25 08:05:57;;;;;;;12.65;8.05;;;;;;;25.45;65.75;100166.66;5010030;28;20475;-77
2022/06/25 08:08:23;;;;;;;10.63;7.40;;;;;;;25.58;66.01;100173.28;5008820;28;20065;-78
2022/06/25 08:10:49;;;;;;;12.07;7.75;;;;;;;25.65;64.72;100174.84;5012589;28;20022;-76
2022/06/25 08:13:15;;;;;;;9.95;8.07;;;;;;;25.79;64.66;100178.84;5013855;28;20045;-77
2022/06/25 08:15:40;;;;;;;11.32;7.90;;;;;;;25.93;64.91;100176.66;5013884;28;20052;-77
2022/06/25 08:18:06;;;;;;;10.23;6.90;;;;;;;25.59;63.95;100101.00;5013535;28;20025;-79
2022/06/25 08:20:31;;;;;;;17.30;8.43;;;;;;;25.84;65.28;100148.72;5014053;28;20030;-78
2022/06/25 08:22:57;;;;;;;11.15;8.05;;;;;;;26.09;69.24;100169.09;5013835;28;20049;-78
2022/06/25 08:25:23;;;;;;;11.13;8.30;;;;;;;25.93;65.53;100131.69;5003170;28;20034;-77
2022/06/25 08:27:50;;;;;;;9.65;8.32;;;;;;;26.00;69.38;100156.16;5013338;28;20409;-76
2022/06/25 08:30:17;;;;;;;13.18;7.95;;;;;;;25.96;68.81;100142.16;4994741;28;20072;-77
2022/06/25 08:32:43;;;;;;;12.10;7.88;;;;;;;26.04;65.22;100156.91;5013394;28;20408;-78
2022/06/25 08:35:08;;;;;;;11.63;7.45;;;;;;;25.91;62.75;100112.34;5012382;28;20112;-84
2022/06/25 08:37:47;;;;;;;15.73;7.72;;;;;;;25.91;64.64;100093.84;5013747;28;20477;-81
2022/06/25 08:40:13;;;;;;;11.73;7.10;;;;;;;26.32;62.10;100138.41;5011448;28;20117;-78
2022/06/25 08:42:39;;;;;;;12.75;8.07;;;;;;;26.35;63.72;100132.97;5013392;28;20029;-77
2022/06/25 08:45:06;;;;;;;13.77;7.00;;;;;;;26.59;61.04;100149.81;5013533;28;20370;-77
2022/06/25 08:47:32;;;;;;;10.30;7.00;;;;;;;26.71;59.24;100150.31;5012595;28;20072;-78
2022/06/25 08:50:02;;;;;;;8.45;7.07;;;;;;;26.79;59.74;100154.44;5013154;28;20054;-79
2022/06/25 08:52:28;;;;;;;7.70;6.25;;;;;;;26.93;57.87;100150.41;4975872;28;20054;-76
2022/06/25 08:54:55;;;;;;;12.05;6.72;;;;;;;27.02;59.58;100149.25;5013034;28;20029;-76
2022/06/25 08:57:20;;;;;;;9.02;6.20;;;;;;;26.75;61.38;100089.25;5013039;28;20038;-76
2022/06/25 08:59:47;;;;;;;8.15;4.93;;;;;;;27.13;55.53;100120.56;5010805;28;20401;-79
2022/06/25 09:02:12;;;;;;;7.97;5.22;;;;;;;27.27;54.04;100127.97;4997014;28;20030;-77
2022/06/25 09:04:38;;;;;;;7.40;5.63;;;;;;;27.25;53.35;100096.25;4997263;28;20399;-79
2022/06/25 09:07:15;;;;;;;7.38;5.03;;;;;;;27.56;51.62;100132.16;4993276;28;20030;-78
2022/06/25 09:09:45;;;;;;;8.23;5.70;;;;;;;27.63;55.47;100137.22;4993332;28;20118;-78
2022/06/25 09:12:13;;;;;;;10.18;5.03;;;;;;;27.71;55.50;100112.13;4992524;28;20093;-78
2022/06/25 09:14:39;;;;;;;7.63;5.68;;;;;;;27.86;52.72;100118.59;4991844;28;20056;-76
2022/06/25 09:17:08;;;;;;;8.38;5.00;;;;;;;28.03;51.31;100114.41;4991710;28;20030;-77
2022/06/25 09:19:38;;;;;;;6.75;4.15;;;;;;;28.24;50.17;100128.63;4991822;28;20117;-76
2022/06/25 09:22:07;;;;;;;6.85;4.80;;;;;;;28.25;52.02;100128.56;4990954;28;20505;-79
2022/06/25 09:24:42;;;;;;;10.32;4.43;;;;;;;28.40;50.85;100129.69;4993014;28;20414;-81
2022/06/25 09:27:07;;;;;;;6.80;4.40;;;;;;;28.51;50.74;100131.00;5009283;28;20034;-77
2022/06/25 09:29:51;;;;;;;5.25;4.10;;;;;;;28.48;47.74;100091.31;5009361;28;20492;-81
2022/06/25 09:32:17;;;;;;;8.25;4.20;;;;;;;28.81;47.34;100120.88;4991531;28;20084;-78
2022/06/25 09:34:43;;;;;;;5.38;4.30;;;;;;;28.79;47.48;100105.94;4991649;28;20045;-80
2022/06/25 09:37:26;;;;;;;6.57;3.90;;;;;;;28.93;47.86;100097.34;4991291;28;20034;-78
2022/06/25 09:39:54;;;;;;;6.88;3.80;;;;;;;29.09;46.20;100100.16;4993710;28;20074;-78
2022/06/25 09:42:21;;;;;;;5.23;3.67;;;;;;;29.23;44.43;100111.00;4991573;28;20030;-75
2022/06/25 09:44:48;;;;;;;5.60;3.88;;;;;;;29.39;45.60;100118.31;4991406;28;20049;-77
2022/06/25 09:47:14;;;;;;;6.95;3.90;;;;;;;29.14;44.87;100047.66;4991378;28;20035;-78
2022/06/25 09:49:40;;;;;;;3.92;3.33;;;;;;;29.44;44.65;100095.00;4992085;28;20041;-77
2022/06/25 09:52:05;;;;;;;4.65;3.58;;;;;;;29.54;44.53;100094.47;4991207;28;20037;-77
2022/06/25 09:54:32;;;;;;;9.95;4.00;;;;;;;29.65;45.37;100075.34;4991669;28;20444;-77
2022/06/25 09:56:59;;;;;;;4.38;3.55;;;;;;;29.89;41.69;100090.19;4993288;28;20430;-75
2022/06/25 09:59:32;;;;;;;5.70;3.42;;;;;;;29.37;40.79;100042.13;4991009;28;20338;-78
2022/06/25 10:02:03;;;;;;;4.80;3.38;;;;;;;29.41;42.08;100066.78;4991329;28;20041;-78
2022/06/25 10:04:30;;;;;;;5.75;2.75;;;;;;;29.57;40.73;100084.63;4991055;28;20038;-76
2022/06/25 10:06:57;;;;;;;7.68;3.40;;;;;;;29.73;41.11;100087.41;4973295;28;20159;-78
2022/06/25 10:09:25;;;;;;;4.63;3.55;;;;;;;29.95;43.96;100077.44;4990394;28;20030;-82
2022/06/25 10:11:52;;;;;;;5.93;3.15;;;;;;;30.06;39.93;100089.34;4991011;28;20105;-78
2022/06/25 10:14:18;;;;;;;4.50;3.15;;;;;;;30.36;38.92;100089.59;4990813;28;20138;-78
2022/06/25 10:16:44;;;;;;;6.57;3.47;;;;;;;30.45;38.45;100077.59;4956296;28;20109;-80
2022/06/25 10:19:14;;;;;;;5.07;3.13;;;;;;;30.36;38.37;100070.94;4990279;28;20504;-79
2022/06/25 10:21:41;;;;;;;4.68;3.05;;;;;;;30.23;38.41;100040.56;4997782;28;20092;-79
2022/06/25 10:24:07;;;;;;;4.15;3.13;;;;;;;30.59;37.29;100090.22;5001736;28;20053;-82
2022/06/25 10:26:35;;;;;;;6.85;2.95;;;;;;;30.86;36.56;100095.03;4996548;28;20034;-81
2022/06/25 10:29:02;;;;;;;4.45;2.65;;;;;;;31.00;35.44;100078.28;4993755;28;20042;-78
2022/06/25 10:31:28;;;;;;;5.15;3.05;;;;;;;30.93;40.48;100048.41;4994545;28;20081;-77
2022/06/25 10:34:02;;;;;;;4.97;2.97;;;;;;;31.24;35.04;100084.97;4992443;28;20453;-78
2022/06/25 10:36:41;;;;;;;5.55;2.70;;;;;;;31.59;34.54;100079.44;4997857;28;20785;-78
2022/06/25 10:39:25;;;;;;;5.28;2.97;;;;;;;31.78;34.78;100084.59;4992977;28;20022;-79
2022/06/25 10:45:08;;;;;;;5.13;3.03;;;;;;;31.25;36.29;100101.81;4989781;28;20776;-77
2022/06/25 10:47:41;;;;;;;4.35;2.70;;;;;;;31.14;33.81;100097.94;4991277;28;20050;-78
2022/06/25 10:50:21;;;;;;;6.88;3.22;;;;;;;31.32;35.86;100100.53;4990391;28;20023;-82
2022/06/25 10:53:05;;;;;;;4.20;2.90;;;;;;;31.48;35.52;100097.88;4990143;28;20031;-81
2022/06/25 10:55:35;;;;;;;13.18;3.72;;;;;;;31.64;40.04;100095.22;4989902;28;20030;-78
2022/06/25 10:58:24;;;;;;;6.28;3.17;;;;;;;31.74;34.65;100088.41;4989105;28;20080;-82
2022/06/25 11:00:52;;;;;;;5.22;2.90;;;;;;;31.62;35.49;100075.72;4989582;28;20061;-79
2022/06/25 11:03:37;;;;;;;5.20;2.83;;;;;;;31.89;31.73;100086.66;4990482;28;20023;-78
2022/06/25 11:06:24;;;;;;;4.35;2.75;;;;;;;32.04;34.21;100084.88;4913489;29;20453;-76
2022/06/25 11:08:51;;;;;;;5.40;3.05;;;;;;;31.77;36.73;100088.19;4920134;29;20035;-80
2022/06/25 11:11:24;;;;;;;6.28;3.10;;;;;;;31.74;32.41;100087.50;4914046;29;20134;-80
2022/06/25 11:13:49;;;;;;;7.60;4.47;;;;;;;31.90;31.03;100093.72;4910013;29;20555;-76
2022/06/25 11:16:18;;;;;;;6.85;3.60;;;;;;;31.87;31.99;100080.53;4910080;29;20032;-75
2022/06/25 11:18:54;;;;;;;4.50;3.10;;;;;;;32.08;30.97;100089.09;4910128;29;20106;-77
2022/06/25 11:21:40;;;;;;;4.82;3.00;;;;;;;31.95;35.17;100032.00;4894521;29;20788;-81
2022/06/25 11:24:12;;;;;;;4.32;2.90;;;;;;;32.47;31.29;100092.16;4912340;29;20047;-80
2022/06/25 11:29:30;;;;;;;3.97;2.50;;;;;;;32.35;33.16;100036.78;4916227;29;20102;-76
2022/06/25 11:31:57;;;;;;;3.60;2.83;;;;;;;32.62;32.81;100081.47;4912077;29;20096;-79
2022/06/25 11:34:25;;;;;;;6.10;2.88;;;;;;;32.74;33.99;100081.59;4909924;29;20096;-75
2022/06/25 11:37:11;;;;;;;5.55;2.97;;;;;;;32.29;30.91;100074.56;4910265;29;20507;-80
2022/06/25 11:39:38;;;;;;;4.13;2.72;;;;;;;32.46;30.34;100065.53;4910245;29;20044;-76
2022/06/25 11:42:09;;;;;;;4.88;2.70;;;;;;;32.78;30.00;100071.59;4911494;29;20028;-76
2022/06/25 11:44:48;;;;;;;3.63;2.63;;;;;;;32.87;29.61;100072.81;4965366;28;20549;-77